Texas General Land Office
 Texas General Land Office
 George P. Bush, Commissioner

 Oil Spill Prevention
 & Response

Texas Automated Buoy System
Real Time Ocean Observations
Supporting Oil Spill Prevention and
Response since 1995
Geochemical and Environmental Research Group

NOAA - NDBC Buoy 42020 -- Texas Automated Buoy System

NBDC Buoy 42020
Corpus Christi, TX
Conditions at 10/19/2018 07:20 UTC (10/19/2018 07:20 UTC)
26° 57.0000'N   96° 42.0000'W
50nm Southeast of Corpus Christi, TX
Anemometer height: 5m
Water Depth: 252 feet (77 meters)
Wind: 4.0 m/s (7.8 kts)
          From 180°T (S)
Wind Gust: 6.00 m/s (11.7 kts) Pressure: 1017.7 mb (30.05 inHg)
Air Temp: 25°C (76 °F) Dewpoint: 25°C (76°F) Relative Humidity: 100%
Sea Surf Temp: 28 °C (82 °F) Wave Height: -99.0m (-324.8 ft) Wave Period: -99
  


IMPORTANT: Notice to Mariners


Today's Velocity Data

  Buoy     Date      Time     East   North   Speed  Dir(°T) Wave Ht WvPer  Num
|  ID  |          |  (UTC) | (m/s) | (m/s) | (m/s) |(FROM) |  (m)  | secs| pts |
+======+==========+========+=======+=======+=======+=======+=======+=====+=====+
  42020 10/16/2018 00:10:00    0.00   12.00   12.00       0     0.0     0     1
  42020 10/16/2018 00:20:00   -2.08   11.82   12.00     350     2.1     6     1
  42020 10/16/2018 00:30:00   -2.08   11.82   12.00     350     0.0     0     1
  42020 10/16/2018 00:40:00   -2.08   11.82   12.00     350     0.0     0     1
  42020 10/16/2018 00:50:00    0.00   12.00   12.00       0     0.0     0     1
  42020 10/16/2018 06:00:00   -2.71   11.10   11.43     346     0.4     1    31
  42020 10/16/2018 06:10:00   -6.00   10.39   12.00     330     0.0     0     1
  42020 10/16/2018 06:20:00   -5.50    9.53   11.00     330     2.1     7     1
  42020 10/16/2018 06:30:00   -5.50    9.53   11.00     330     0.0     0     1
  42020 10/16/2018 06:40:00   -6.43    7.66   10.00     320     0.0     0     1
  42020 10/16/2018 06:50:00   -7.07    8.43   11.00     320     0.0     0     1
  42020 10/16/2018 12:00:00   -6.55    8.81   10.98     323     0.4     1    31
  42020 10/16/2018 12:10:00   -7.71    9.19   12.00     320     0.0     0     1
  42020 10/16/2018 12:20:00   -9.19    7.71   12.00     310     1.9     5     1
  42020 10/16/2018 12:30:00   -9.19    7.71   12.00     310     0.0     0     1
  42020 10/16/2018 12:40:00   -9.19    7.71   12.00     310     0.0     0     1
  42020 10/16/2018 12:50:00   -9.19    7.71   12.00     310     0.0     0     1
  42020 10/16/2018 18:00:00   -5.58    8.37   10.06     326     0.3     1    31
  42020 10/16/2018 18:10:00   -4.00    6.93    8.00     330     0.0     0     1
  42020 10/16/2018 18:20:00   -4.50    7.79    9.00     330     1.5     5     1
  42020 10/16/2018 18:30:00   -4.00    6.93    8.00     330     0.0     0     1
  42020 10/16/2018 18:40:00   -4.50    7.79    9.00     330     0.0     0     1
  42020 10/16/2018 18:50:00   -3.08    8.46    9.00     340     0.0     0     1
  42020 10/17/2018 00:00:00   -1.24    8.40    8.49     352     0.3     1    31
  42020 10/17/2018 00:10:00   -5.79    6.89    9.00     320     0.0     0     1
  42020 10/17/2018 00:20:00   -3.42    9.40   10.00     340     1.2     6     1
  42020 10/17/2018 00:30:00   -4.50    7.79    9.00     330     0.0     0     1
  42020 10/17/2018 00:40:00   -5.00    8.66   10.00     330     0.0     0     1
  42020 10/17/2018 00:50:00   -3.42    9.40   10.00     340     0.0     0     1
  42020 10/17/2018 06:00:00   -4.02    8.73    9.61     335     0.3     1    31
  42020 10/17/2018 06:10:00   -4.50    7.79    9.00     330     0.0     0     1
  42020 10/17/2018 06:20:00   -3.08    8.46    9.00     340     1.4     4     1
  42020 10/17/2018 06:30:00   -5.00    8.66   10.00     330     0.0     0     1
  42020 10/17/2018 06:40:00   -5.00    8.66   10.00     330     0.0     0     1
  42020 10/17/2018 06:50:00   -5.00    8.66   10.00     330     0.0     0     1
  42020 10/17/2018 12:00:00   -4.12    8.50    9.45     334     0.3     1    31
  42020 10/17/2018 12:10:00   -3.08    8.46    9.00     340     1.5     0     1
  42020 10/17/2018 12:20:00   -3.08    8.46    9.00     340     1.5     6     1
  42020 10/17/2018 12:30:00   -3.42    9.40   10.00     340     0.0     0     1
  42020 10/17/2018 12:40:00   -1.56    8.86    9.00     350     0.0     0     1
  42020 10/17/2018 12:50:00   -3.08    8.46    9.00     340     0.0     0     1
  42020 10/17/2018 18:00:00   -3.62    8.35    9.10     337     0.2     1    31
  42020 10/17/2018 18:10:00   -5.00    8.66   10.00     330     0.0     0     1
  42020 10/17/2018 18:20:00   -3.08    8.46    9.00     340     1.5     5     1
  42020 10/17/2018 18:30:00   -3.08    8.46    9.00     340     0.0     0     1
  42020 10/17/2018 18:40:00   -3.08    8.46    9.00     340     0.0     0     1
  42020 10/17/2018 18:50:00   -4.50    7.79    9.00     330     0.0     0     1
  42020 10/18/2018 00:00:00   -3.65    9.09    9.80     338     0.2     1    31
  42020 10/18/2018 00:10:00   -3.42    9.40   10.00     340     0.0     0     1
  42020 10/18/2018 00:20:00   -1.74    9.85   10.00     350     1.7     6     1
  42020 10/18/2018 00:30:00   -1.74    9.85   10.00     350     0.0     0     1
  42020 10/18/2018 00:40:00   -3.42    9.40   10.00     340     0.0     0     1
  42020 10/18/2018 00:50:00   -3.76   10.34   11.00     340     0.0     0     1
  42020 10/18/2018 06:00:00    0.06   10.82   10.82       0     0.3     1    31
  42020 10/18/2018 06:10:00    2.08   11.82   12.00      10     0.0     0     1
  42020 10/18/2018 06:20:00    2.08   11.82   12.00      10     2.0     6     1
  42020 10/18/2018 06:30:00    2.08   11.82   12.00      10     0.0     0     1
  42020 10/18/2018 06:40:00    2.08   11.82   12.00      10     0.0     0     1
  42020 10/18/2018 06:50:00    2.08   11.82   12.00      10     0.0     0     1
  42020 10/18/2018 12:00:00    1.97   10.84   11.02      10     0.3     1    31
  42020 10/18/2018 12:10:00    0.00   12.00   12.00       0     2.4     0     1
  42020 10/18/2018 12:20:00    0.00   13.00   13.00       0     2.4     7     1
  42020 10/18/2018 12:30:00    0.00   13.00   13.00       0     0.0     0     1
  42020 10/18/2018 12:40:00    0.00   12.00   12.00       0     0.0     0     1
  42020 10/18/2018 12:50:00    0.00   12.00   12.00       0     0.0     0     1
  42020 10/18/2018 18:00:00   -3.54   10.64   11.21     342     0.5     1    31
  42020 10/18/2018 18:10:00   -7.71    9.19   12.00     320     0.0     0     1
  42020 10/18/2018 18:20:00   -8.36    9.96   13.00     320     2.7     8     1
  42020 10/18/2018 18:30:00   -6.50   11.26   13.00     330     0.0     0     1
  42020 10/18/2018 18:40:00   -6.00   10.39   12.00     330     0.0     0     1
  42020 10/18/2018 18:50:00   -4.45   12.22   13.00     340     0.0     0     1
  42020 10/19/2018 00:00:00   -1.59    8.92    9.06     350     0.4     1    31
  42020 10/19/2018 00:10:00   -6.00   10.39   12.00     330     2.4     0     1
  42020 10/19/2018 00:20:00   -6.00   10.39   12.00     330     2.4     8     1
  42020 10/19/2018 00:30:00   -6.00   10.39   12.00     330     0.0     0     1
  42020 10/19/2018 00:40:00   -6.00   10.39   12.00     330     0.0     0     1
  42020 10/19/2018 00:50:00   -6.00   10.39   12.00     330     0.0     0     1
  42020 10/19/2018 06:00:00    2.29    7.69    8.02      17     0.4     1    31
  42020 10/19/2018 06:10:00    0.87    0.50    1.00      60     2.3     0     1
  42020 10/19/2018 06:20:00    1.53   -1.29    2.00     130     2.3     0     1
  42020 10/19/2018 06:30:00    1.93   -2.30    3.00     140     0.0     0     1
  42020 10/19/2018 06:40:00    2.57   -3.06    4.00     140     0.0     0     1
  42020 10/19/2018 06:50:00    1.71   -4.70    5.00     160     0.0     0     1